sensor_id;sensor_type;location;lat;lon;timestamp;pressure;altitude;pressure_sealevel;temperature;humidity
19208;BME280;9737;59.466;18.036;2023-05-12T00:00:47;97519.69;;;5.39;23.91
19208;BME280;9737;59.466;18.036;2023-05-12T00:03:15;97502.69;;;5.34;24.21
19208;BME280;9737;59.466;18.036;2023-05-12T00:05:42;97477.09;;;5.26;24.39
19208;BME280;9737;59.466;18.036;2023-05-12T00:08:10;97417.03;;;5.12;24.22
19208;BME280;9737;59.466;18.036;2023-05-12T00:10:39;97371.28;;;4.95;24.29
19208;BME280;9737;59.466;18.036;2023-05-12T00:13:07;97330.88;;;4.86;23.89
19208;BME280;9737;59.466;18.036;2023-05-12T00:15:36;97289.84;;;4.76;23.92
19208;BME280;9737;59.466;18.036;2023-05-12T00:18:04;97247.13;;;4.64;24.31
19208;BME280;9737;59.466;18.036;2023-05-12T00:20:32;97206.09;;;4.53;24.27
19208;BME280;9737;59.466;18.036;2023-05-12T00:23:00;97167.84;;;4.41;24.51
19208;BME280;9737;59.466;18.036;2023-05-12T00:25:28;97121.53;;;4.30;24.33
19208;BME280;9737;59.466;18.036;2023-05-12T00:27:57;97090.91;;;4.21;24.16
19208;BME280;9737;59.466;18.036;2023-05-12T00:30:25;97055.19;;;4.11;24.21
19208;BME280;9737;59.466;18.036;2023-05-12T00:32:53;97027.81;;;4.03;24.45
19208;BME280;9737;59.466;18.036;2023-05-12T00:35:21;96988.66;;;3.92;24.36
19208;BME280;9737;59.466;18.036;2023-05-12T00:37:49;96973.19;;;3.89;24.35
19208;BME280;9737;59.466;18.036;2023-05-12T00:40:16;96951.16;;;3.82;24.45
19208;BME280;9737;59.466;18.036;2023-05-12T00:42:45;96931.56;;;3.77;24.64
19208;BME280;9737;59.466;18.036;2023-05-12T00:45:17;96905.88;;;3.70;24.36
19208;BME280;9737;59.466;18.036;2023-05-12T00:47:46;96894.19;;;3.65;24.46
19208;BME280;9737;59.466;18.036;2023-05-12T00:50:14;96871.19;;;3.59;24.56
19208;BME280;9737;59.466;18.036;2023-05-12T00:52:42;96854.09;;;3.55;24.60
19208;BME280;9737;59.466;18.036;2023-05-12T00:55:10;96837.97;;;3.50;24.62
19208;BME280;9737;59.466;18.036;2023-05-12T00:57:39;96808.84;;;3.43;24.37
19208;BME280;9737;59.466;18.036;2023-05-12T01:00:07;96796.84;;;3.40;24.75
19208;BME280;9737;59.466;18.036;2023-05-12T01:02:37;96794.69;;;3.36;24.65
19208;BME280;9737;59.466;18.036;2023-05-12T01:05:06;96763.66;;;3.31;24.70
19208;BME280;9737;59.466;18.036;2023-05-12T01:07:35;96757.06;;;3.27;24.65
19208;BME280;9737;59.466;18.036;2023-05-12T01:10:16;96753.78;;;3.25;24.65
19208;BME280;9737;59.466;18.036;2023-05-12T01:12:44;96720.72;;;3.15;24.91
19208;BME280;9737;59.466;18.036;2023-05-12T01:15:12;96724.53;;;3.20;24.84
19208;BME280;9737;59.466;18.036;2023-05-12T01:17:46;96711.03;;;3.15;24.75
19208;BME280;9737;59.466;18.036;2023-05-12T01:20:15;96699.22;;;3.11;24.79
19208;BME280;9737;59.466;18.036;2023-05-12T01:22:45;96681.00;;;3.09;24.92
19208;BME280;9737;59.466;18.036;2023-05-12T01:25:15;96673.59;;;3.05;24.81
19208;BME280;9737;59.466;18.036;2023-05-12T01:27:45;96668.34;;;3.05;24.94
19208;BME280;9737;59.466;18.036;2023-05-12T01:30:15;96669.63;;;3.01;25.05
19208;BME280;9737;59.466;18.036;2023-05-12T01:32:44;96650.44;;;3.00;24.93
19208;BME280;9737;59.466;18.036;2023-05-12T01:35:12;96645.50;;;2.97;24.86
19208;BME280;9737;59.466;18.036;2023-05-12T01:37:40;96646.34;;;2.98;25.16
19208;BME280;9737;59.466;18.036;2023-05-12T01:40:08;96658.31;;;3.00;25.14
19208;BME280;9737;59.466;18.036;2023-05-12T01:42:37;96668.34;;;3.05;25.04
19208;BME280;9737;59.466;18.036;2023-05-12T01:45:08;96688.19;;;3.07;25.08
19208;BME280;9737;59.466;18.036;2023-05-12T01:47:38;96692.16;;;3.11;25.09
19208;BME280;9737;59.466;18.036;2023-05-12T01:50:06;96705.13;;;3.13;25.28
19208;BME280;9737;59.466;18.036;2023-05-12T01:52:36;96724.53;;;3.20;25.24
19208;BME280;9737;59.466;18.036;2023-05-12T01:55:04;96739.00;;;3.24;25.30
19208;BME280;9737;59.466;18.036;2023-05-12T01:57:33;96763.00;;;3.29;25.32
19208;BME280;9737;59.466;18.036;2023-05-12T02:00:03;96753.47;;;3.28;25.52
19208;BME280;9737;59.466;18.036;2023-05-12T02:02:32;96741.63;;;3.24;25.59
19208;BME280;9737;59.466;18.036;2023-05-12T02:05:00;96722.06;;;3.19;25.54
19208;BME280;9737;59.466;18.036;2023-05-12T02:07:28;96698.22;;;3.12;25.37
19208;BME280;9737;59.466;18.036;2023-05-12T02:09:56;96672.44;;;3.07;25.58
19208;BME280;9737;59.466;18.036;2023-05-12T02:12:24;96660.78;;;3.02;25.36
19208;BME280;9737;59.466;18.036;2023-05-12T02:14:51;96646.34;;;2.98;25.46
19208;BME280;9737;59.466;18.036;2023-05-12T02:17:19;96659.13;;;3.01;25.48
19208;BME280;9737;59.466;18.036;2023-05-12T02:19:48;96671.13;;;3.03;25.54
19208;BME280;9737;59.466;18.036;2023-05-12T02:22:16;96709.41;;;3.14;25.63
19208;BME280;9737;59.466;18.036;2023-05-12T02:24:44;96753.78;;;3.25;25.55
19208;BME280;9737;59.466;18.036;2023-05-12T02:27:12;96765.28;;;3.32;25.77
19208;BME280;9737;59.466;18.036;2023-05-12T02:29:40;96785.16;;;3.35;26.01
19208;BME280;9737;59.466;18.036;2023-05-12T02:32:08;96792.22;;;3.34;25.70
19208;BME280;9737;59.466;18.036;2023-05-12T02:34:36;96797.00;;;3.39;25.96
19208;BME280;9737;59.466;18.036;2023-05-12T02:37:06;96793.72;;;3.37;25.90
19208;BME280;9737;59.466;18.036;2023-05-12T02:39:33;96796.19;;;3.38;26.06
19208;BME280;9737;59.466;18.036;2023-05-12T02:42:02;96803.91;;;3.40;25.97
19208;BME280;9737;59.466;18.036;2023-05-12T02:44:29;96815.75;;;3.44;26.04
19208;BME280;9737;59.466;18.036;2023-05-12T02:46:57;96832.03;;;3.48;26.08
19208;BME280;9737;59.466;18.036;2023-05-12T02:49:25;96844.03;;;3.50;26.07
19208;BME280;9737;59.466;18.036;2023-05-12T02:51:53;96846.50;;;3.52;26.01
19208;BME280;9737;59.466;18.036;2023-05-12T02:54:22;96836.47;;;3.47;26.08
19208;BME280;9737;59.466;18.036;2023-05-12T02:56:50;96818.91;;;3.48;26.18
19208;BME280;9737;59.466;18.036;2023-05-12T02:59:18;96834.66;;;3.48;26.35
19208;BME280;9737;59.466;18.036;2023-05-12T03:01:46;96836.16;;;3.50;26.44
19208;BME280;9737;59.466;18.036;2023-05-12T03:04:14;96855.72;;;3.56;26.39
19208;BME280;9737;59.466;18.036;2023-05-12T03:06:42;96885.66;;;3.63;26.48
19208;BME280;9737;59.466;18.036;2023-05-12T03:09:11;96913.09;;;3.68;26.66
19208;BME280;9737;59.466;18.036;2023-05-12T03:11:40;96942.59;;;3.80;26.59
19208;BME280;9737;59.466;18.036;2023-05-12T03:14:08;96962.31;;;3.84;26.49
19208;BME280;9737;59.466;18.036;2023-05-12T03:16:36;96985.34;;;3.90;26.75
19208;BME280;9737;59.466;18.036;2023-05-12T03:19:04;97016.13;;;3.98;26.75
19208;BME280;9737;59.466;18.036;2023-05-12T03:21:32;97029.78;;;4.01;26.82
19208;BME280;9737;59.466;18.036;2023-05-12T03:24:00;97060.44;;;4.11;26.82
19208;BME280;9737;59.466;18.036;2023-05-12T03:26:28;97091.06;;;4.20;26.79
19208;BME280;9737;59.466;18.036;2023-05-12T03:28:57;97134.84;;;4.29;26.90
19208;BME280;9737;59.466;18.036;2023-05-12T03:31:25;97160.94;;;4.40;27.14
19208;BME280;9737;59.466;18.036;2023-05-12T03:33:53;97241.31;;;4.60;26.82
19208;BME280;9737;59.466;18.036;2023-05-12T03:36:21;97358.28;;;4.93;27.15
19208;BME280;9737;59.466;18.036;2023-05-12T03:38:49;97453.44;;;5.16;27.11
19208;BME280;9737;59.466;18.036;2023-05-12T03:41:17;97538.00;;;5.41;27.61
19208;BME280;9737;59.466;18.036;2023-05-12T03:43:45;97635.63;;;5.67;27.43
19208;BME280;9737;59.466;18.036;2023-05-12T03:46:14;97698.94;;;5.84;27.17
19208;BME280;9737;59.466;18.036;2023-05-12T03:48:42;97741.63;;;5.98;27.27
19208;BME280;9737;59.466;18.036;2023-05-12T03:51:10;97818.88;;;6.17;27.45
19208;BME280;9737;59.466;18.036;2023-05-12T03:53:38;97895.16;;;6.38;27.96
19208;BME280;9737;59.466;18.036;2023-05-12T03:56:07;97939.81;;;6.49;28.11
19208;BME280;9737;59.466;18.036;2023-05-12T03:58:35;98012.69;;;6.70;28.08
19208;BME280;9737;59.466;18.036;2023-05-12T04:01:03;98098.50;;;6.93;27.73
19208;BME280;9737;59.466;18.036;2023-05-12T04:03:32;98176.72;;;7.13;28.23
19208;BME280;9737;59.466;18.036;2023-05-12T04:06:01;98274.59;;;7.41;28.29
19208;BME280;9737;59.466;18.036;2023-05-12T04:08:29;98363.88;;;7.66;28.45
19208;BME280;9737;59.466;18.036;2023-05-12T04:10:59;98458.50;;;7.92;28.16
19208;BME280;9737;59.466;18.036;2023-05-12T04:13:27;98560.16;;;8.18;28.33
19208;BME280;9737;59.466;18.036;2023-05-12T04:15:57;98635.25;;;8.36;28.51
19208;BME280;9737;59.466;18.036;2023-05-12T04:18:25;98710.25;;;8.56;28.52
19208;BME280;9737;59.466;18.036;2023-05-12T04:20:55;98794.63;;;8.80;28.48
19208;BME280;9737;59.466;18.036;2023-05-12T04:23:23;98856.81;;;8.95;28.97
19208;BME280;9737;59.466;18.036;2023-05-12T04:25:52;98961.09;;;9.25;29.18
19208;BME280;9737;59.466;18.036;2023-05-12T04:28:20;99025.06;;;9.41;29.16
19208;BME280;9737;59.466;18.036;2023-05-12T04:30:48;99139.91;;;9.72;28.99
19208;BME280;9737;59.466;18.036;2023-05-12T04:33:16;99240.16;;;9.99;29.24
19208;BME280;9737;59.466;18.036;2023-05-12T04:35:43;99348.44;;;10.26;29.33
19208;BME280;9737;59.466;18.036;2023-05-12T04:38:13;99444.19;;;10.55;28.88
19208;BME280;9737;59.466;18.036;2023-05-12T04:40:41;99572.50;;;10.88;29.83
19208;BME280;9737;59.466;18.036;2023-05-12T04:43:09;99677.47;;;11.14;29.89
19208;BME280;9737;59.466;18.036;2023-05-12T04:45:56;99776.03;;;11.33;30.15
19208;BME280;9737;59.466;18.036;2023-05-12T04:48:26;99896.31;;;11.69;29.69
19208;BME280;9737;59.466;18.036;2023-05-12T04:50:53;99989.19;;;11.94;30.19
19208;BME280;9737;59.466;18.036;2023-05-12T04:53:23;100058.56;;;12.14;30.08
19208;BME280;9737;59.466;18.036;2023-05-12T04:55:51;100155.84;;;12.40;30.26
19208;BME280;9737;59.466;18.036;2023-05-12T04:58:19;100230.78;;;12.58;30.28
19208;BME280;9737;59.466;18.036;2023-05-12T05:00:47;100302.13;;;12.77;30.33
19208;BME280;9737;59.466;18.036;2023-05-12T05:03:14;100380.63;;;12.95;30.20
19208;BME280;9737;59.466;18.036;2023-05-12T05:05:43;100413.59;;;13.05;30.67
19208;BME280;9737;59.466;18.036;2023-05-12T05:08:11;100471.06;;;13.20;30.68
19208;BME280;9737;59.466;18.036;2023-05-12T05:10:40;100507.69;;;13.29;30.79
19208;BME280;9737;59.466;18.036;2023-05-12T05:13:12;100561.81;;;13.43;30.59
19208;BME280;9737;59.466;18.036;2023-05-12T05:15:48;100628.06;;;13.60;30.81
19208;BME280;9737;59.466;18.036;2023-05-12T05:18:16;100728.41;;;13.85;30.98
19208;BME280;9737;59.466;18.036;2023-05-12T05:20:49;100749.31;;;13.91;31.19
19208;BME280;9737;59.466;18.036;2023-05-12T05:23:24;100810.53;;;14.05;31.20
19208;BME280;9737;59.466;18.036;2023-05-12T05:25:53;100874.34;;;14.21;31.42
19208;BME280;9737;59.466;18.036;2023-05-12T05:28:21;100887.47;;;14.24;31.19
19208;BME280;9737;59.466;18.036;2023-05-12T05:30:49;100985.34;;;14.49;31.69
19208;BME280;9737;59.466;18.036;2023-05-12T05:33:17;101063.03;;;14.70;31.53
19208;BME280;9737;59.466;18.036;2023-05-12T05:35:45;101068.41;;;14.70;31.71
19208;BME280;9737;59.466;18.036;2023-05-12T05:38:13;101143.72;;;14.87;31.69
19208;BME280;9737;59.466;18.036;2023-05-12T05:40:41;101240.88;;;15.12;31.76
19208;BME280;9737;59.466;18.036;2023-05-12T05:43:20;101302.88;;;15.30;31.98
19208;BME280;9737;59.466;18.036;2023-05-12T05:45:48;101386.94;;;15.51;31.80
19208;BME280;9737;59.466;18.036;2023-05-12T05:48:16;101510.59;;;15.82;31.91
19208;BME280;9737;59.466;18.036;2023-05-12T05:50:44;101592.09;;;16.03;32.17
19208;BME280;9737;59.466;18.036;2023-05-12T05:53:12;101692.19;;;16.27;32.13
19208;BME280;9737;59.466;18.036;2023-05-12T05:55:40;101779.88;;;16.51;32.21
19208;BME280;9737;59.466;18.036;2023-05-12T05:58:09;101872.22;;;16.72;32.42
19208;BME280;9737;59.466;18.036;2023-05-12T06:00:38;101906.47;;;16.81;32.51
19208;BME280;9737;59.466;18.036;2023-05-12T06:03:06;101923.94;;;16.87;32.17
19208;BME280;9737;59.466;18.036;2023-05-12T06:05:33;102048.06;;;17.16;32.52
19208;BME280;9737;59.466;18.036;2023-05-12T06:08:01;102014.69;;;17.07;32.65
19208;BME280;9737;59.466;18.036;2023-05-12T06:10:30;102075.22;;;17.24;32.69
19208;BME280;9737;59.466;18.036;2023-05-12T06:12:58;102245.91;;;17.68;32.67
19208;BME280;9737;59.466;18.036;2023-05-12T06:15:26;102295.47;;;17.76;32.89
19208;BME280;9737;59.466;18.036;2023-05-12T06:17:55;102272.56;;;17.71;32.80
19208;BME280;9737;59.466;18.036;2023-05-12T06:20:23;102328.03;;;17.84;32.93
19208;BME280;9737;59.466;18.036;2023-05-12T06:22:51;102416.91;;;18.08;33.06
19208;BME280;9737;59.466;18.036;2023-05-12T06:25:19;102595.97;;;18.52;33.13
19208;BME280;9737;59.466;18.036;2023-05-12T06:27:49;102673.66;;;18.71;33.21
19208;BME280;9737;59.466;18.036;2023-05-12T06:30:18;102714.28;;;18.80;33.19
19208;BME280;9737;59.466;18.036;2023-05-12T06:32:46;102605.00;;;18.51;33.30
19208;BME280;9737;59.466;18.036;2023-05-12T06:35:15;102616.44;;;18.54;33.30
19208;BME280;9737;59.466;18.036;2023-05-12T06:37:43;102671.06;;;18.69;33.32
19208;BME280;9737;59.466;18.036;2023-05-12T06:40:15;102766.69;;;18.89;33.39
19208;BME280;9737;59.466;18.036;2023-05-12T06:42:43;102766.47;;;18.92;33.25
19208;BME280;9737;59.466;18.036;2023-05-12T06:45:11;102790.38;;;18.97;33.48
19208;BME280;9737;59.466;18.036;2023-05-12T06:47:39;102771.22;;;18.88;33.61
19208;BME280;9737;59.466;18.036;2023-05-12T06:50:07;102793.09;;;18.97;33.62
19208;BME280;9737;59.466;18.036;2023-05-12T06:52:37;102855.00;;;19.11;33.39
19208;BME280;9737;59.466;18.036;2023-05-12T06:55:05;102950.34;;;19.35;33.62
19208;BME280;9737;59.466;18.036;2023-05-12T06:57:33;103010.38;;;19.52;33.47
19208;BME280;9737;59.466;18.036;2023-05-12T07:00:02;103054.66;;;19.62;33.68
19208;BME280;9737;59.466;18.036;2023-05-12T07:02:30;103091.72;;;19.72;33.77
19208;BME280;9737;59.466;18.036;2023-05-12T07:04:58;103167.88;;;19.90;33.76
19208;BME280;9737;59.466;18.036;2023-05-12T07:07:26;103168.72;;;19.91;33.73
19208;BME280;9737;59.466;18.036;2023-05-12T07:09:55;103210.47;;;19.99;33.82
19208;BME280;9737;59.466;18.036;2023-05-12T07:12:23;103197.19;;;19.96;33.76
19208;BME280;9737;59.466;18.036;2023-05-12T07:14:52;103221.16;;;20.01;33.70
19208;BME280;9737;59.466;18.036;2023-05-12T07:17:20;103210.56;;;19.98;33.73
19208;BME280;9737;59.466;18.036;2023-05-12T07:19:48;103362.91;;;20.35;33.91
19208;BME280;9737;59.466;18.036;2023-05-12T07:22:16;103441.88;;;20.53;33.86
19208;BME280;9737;59.466;18.036;2023-05-12T07:24:45;103611.88;;;20.98;33.99
19208;BME280;9737;59.466;18.036;2023-05-12T07:27:14;103593.44;;;20.91;33.89
19208;BME280;9737;59.466;18.036;2023-05-12T07:29:43;103681.19;;;21.14;33.94
19208;BME280;9737;59.466;18.036;2023-05-12T07:32:11;103780.53;;;21.40;34.00
19208;BME280;9737;59.466;18.036;2023-05-12T07:34:38;103770.84;;;21.36;33.95
19208;BME280;9737;59.466;18.036;2023-05-12T07:37:06;103808.25;;;21.44;34.09
19208;BME280;9737;59.466;18.036;2023-05-12T07:39:34;103673.19;;;21.12;34.07
19208;BME280;9737;59.466;18.036;2023-05-12T07:42:02;103776.16;;;21.38;34.08
19208;BME280;9737;59.466;18.036;2023-05-12T07:44:31;103923.66;;;21.73;33.96
19208;BME280;9737;59.466;18.036;2023-05-12T07:46:59;103988.63;;;21.87;33.93
19208;BME280;9737;59.466;18.036;2023-05-12T07:49:27;104018.03;;;21.93;34.05
19208;BME280;9737;59.466;18.036;2023-05-12T07:51:55;104119.38;;;22.19;34.15
19208;BME280;9737;59.466;18.036;2023-05-12T07:54:23;104248.31;;;22.52;34.02
19208;BME280;9737;59.466;18.036;2023-05-12T07:56:51;104303.53;;;22.65;34.15
19208;BME280;9737;59.466;18.036;2023-05-12T07:59:18;104164.78;;;22.30;34.10
19208;BME280;9737;59.466;18.036;2023-05-12T08:01:48;104196.81;;;22.38;34.03
19208;BME280;9737;59.466;18.036;2023-05-12T08:04:15;104197.69;;;22.38;34.17
19208;BME280;9737;59.466;18.036;2023-05-12T08:06:44;104174.44;;;22.34;34.10
19208;BME280;9737;59.466;18.036;2023-05-12T08:09:14;104229.63;;;22.47;33.97
19208;BME280;9737;59.466;18.036;2023-05-12T08:11:42;104227.91;;;22.46;34.14
19208;BME280;9737;59.466;18.036;2023-05-12T08:14:16;104350.81;;;22.75;34.22
19208;BME280;9737;59.466;18.036;2023-05-12T08:16:44;104452.34;;;23.01;34.16
19208;BME280;9737;59.466;18.036;2023-05-12T08:19:13;104758.16;;;23.78;34.21
19208;BME280;9737;59.466;18.036;2023-05-12T08:21:41;104882.22;;;24.09;33.87
19208;BME280;9737;59.466;18.036;2023-05-12T08:24:09;104861.03;;;24.00;34.33
19208;BME280;9737;59.466;18.036;2023-05-12T08:26:37;104898.53;;;24.09;33.80
19208;BME280;9737;59.466;18.036;2023-05-12T08:29:04;104922.63;;;24.15;33.95
19208;BME280;9737;59.466;18.036;2023-05-12T08:31:34;104953.81;;;24.24;33.97
19208;BME280;9737;59.466;18.036;2023-05-12T08:34:03;104861.81;;;24.02;33.95
19208;BME280;9737;59.466;18.036;2023-05-12T08:36:35;105011.13;;;24.36;34.01
19208;BME280;9737;59.466;18.036;2023-05-12T08:39:03;105006.66;;;24.35;34.00
19208;BME280;9737;59.466;18.036;2023-05-12T08:41:38;105120.09;;;24.65;33.86
19208;BME280;9737;59.466;18.036;2023-05-12T08:44:08;105259.69;;;24.98;33.82
19208;BME280;9737;59.466;18.036;2023-05-12T08:46:37;105526.66;;;25.61;33.92
19208;BME280;9737;59.466;18.036;2023-05-12T08:49:08;105708.66;;;26.07;33.83
19208;BME280;9737;59.466;18.036;2023-05-12T08:51:43;106020.38;;;26.79;34.20
19208;BME280;9737;59.466;18.036;2023-05-12T08:54:22;105962.91;;;26.65;34.00
19208;BME280;9737;59.466;18.036;2023-05-12T08:56:53;106060.69;;;26.92;34.15
19208;BME280;9737;59.466;18.036;2023-05-12T08:59:24;106162.41;;;27.14;33.68
19208;BME280;9737;59.466;18.036;2023-05-12T09:01:53;106235.22;;;27.32;33.87
19208;BME280;9737;59.466;18.036;2023-05-12T09:04:21;106282.00;;;27.43;34.03
19208;BME280;9737;59.466;18.036;2023-05-12T09:06:51;106367.59;;;27.63;33.65
19208;BME280;9737;59.466;18.036;2023-05-12T09:09:22;106294.56;;;27.48;33.94
19208;BME280;9737;59.466;18.036;2023-05-12T09:11:55;106286.50;;;27.44;33.83
19208;BME280;9737;59.466;18.036;2023-05-12T09:14:24;106433.25;;;27.80;33.75
19208;BME280;9737;59.466;18.036;2023-05-12T09:16:59;106409.81;;;27.74;33.38
19208;BME280;9737;59.466;18.036;2023-05-12T09:19:28;106225.44;;;27.28;33.42
19208;BME280;9737;59.466;18.036;2023-05-12T09:21:59;106175.75;;;27.20;33.38
19208;BME280;9737;59.466;18.036;2023-05-12T09:24:35;106296.34;;;27.49;33.61
19208;BME280;9737;59.466;18.036;2023-05-12T09:27:04;106556.72;;;28.08;33.28
19208;BME280;9737;59.466;18.036;2023-05-12T09:29:32;106567.34;;;28.15;33.64
19208;BME280;9737;59.466;18.036;2023-05-12T09:32:17;106592.63;;;28.20;33.37
19208;BME280;9737;59.466;18.036;2023-05-12T09:34:50;106875.88;;;28.88;33.08
19208;BME280;9737;59.466;18.036;2023-05-12T09:37:19;106881.34;;;28.88;33.46
19208;BME280;9737;59.466;18.036;2023-05-12T09:39:47;106988.00;;;29.11;33.00
19208;BME280;9737;59.466;18.036;2023-05-12T09:42:27;107021.38;;;29.21;33.10
19208;BME280;9737;59.466;18.036;2023-05-12T09:44:58;107276.28;;;29.82;32.87
19208;BME280;9737;59.466;18.036;2023-05-12T09:47:26;107510.72;;;30.37;32.99
19208;BME280;9737;59.466;18.036;2023-05-12T09:49:55;107522.38;;;30.42;32.79
19208;BME280;9737;59.466;18.036;2023-05-12T09:52:24;107578.59;;;30.54;32.97
19208;BME280;9737;59.466;18.036;2023-05-12T09:54:52;107673.75;;;30.77;32.87
19208;BME280;9737;59.466;18.036;2023-05-12T09:57:20;107781.72;;;31.01;32.65
19208;BME280;9737;59.466;18.036;2023-05-12T09:59:50;107655.63;;;30.73;32.77
19208;BME280;9737;59.466;18.036;2023-05-12T10:02:18;107535.97;;;30.45;32.71
19208;BME280;9737;59.466;18.036;2023-05-12T10:04:53;107781.50;;;31.05;32.54
19208;BME280;9737;59.466;18.036;2023-05-12T10:07:26;107467.03;;;30.31;32.57
19208;BME280;9737;59.466;18.036;2023-05-12T10:09:58;107476.97;;;30.34;32.58
19208;BME280;9737;59.466;18.036;2023-05-12T10:12:27;107438.81;;;30.28;32.29
19208;BME280;9737;59.466;18.036;2023-05-12T10:14:55;107549.31;;;30.53;32.22
19208;BME280;9737;59.466;18.036;2023-05-12T10:17:24;107764.19;;;31.03;32.35
19208;BME280;9737;59.466;18.036;2023-05-12T10:19:53;107718.78;;;30.93;32.12
19208;BME280;9737;59.466;18.036;2023-05-12T10:22:21;107654.34;;;30.80;32.00
19208;BME280;9737;59.466;18.036;2023-05-12T10:24:53;107511.13;;;30.47;32.04
19208;BME280;9737;59.466;18.036;2023-05-12T10:27:21;107485.75;;;30.42;31.72
19208;BME280;9737;59.466;18.036;2023-05-12T10:29:50;107580.03;;;30.63;32.09
19208;BME280;9737;59.466;18.036;2023-05-12T10:32:19;107689.56;;;30.91;31.45
19208;BME280;9737;59.466;18.036;2023-05-12T10:34:47;107760.31;;;31.07;31.60
19208;BME280;9737;59.466;18.036;2023-05-12T10:37:15;107745.72;;;31.05;31.77
19208;BME280;9737;59.466;18.036;2023-05-12T10:39:47;107725.81;;;31.00;31.48
19208;BME280;9737;59.466;18.036;2023-05-12T10:42:20;107800.13;;;31.19;31.53
19208;BME280;9737;59.466;18.036;2023-05-12T10:44:51;108024.25;;;31.73;31.32
19208;BME280;9737;59.466;18.036;2023-05-12T10:47:23;108036.03;;;31.77;31.29
19208;BME280;9737;59.466;18.036;2023-05-12T10:49:54;108200.56;;;32.14;30.93
19208;BME280;9737;59.466;18.036;2023-05-12T10:52:23;108177.75;;;32.10;30.92
19208;BME280;9737;59.466;18.036;2023-05-12T10:54:58;108217.69;;;32.20;30.76
19208;BME280;9737;59.466;18.036;2023-05-12T10:57:28;108535.19;;;32.95;31.13
19208;BME280;9737;59.466;18.036;2023-05-12T10:59:58;108444.09;;;32.75;30.70
19208;BME280;9737;59.466;18.036;2023-05-12T11:02:29;108263.03;;;32.33;30.73
19208;BME280;9737;59.466;18.036;2023-05-12T11:05:01;108080.22;;;31.94;30.85
19208;BME280;9737;59.466;18.036;2023-05-12T11:07:32;108283.88;;;32.41;30.72
19208;BME280;9737;59.466;18.036;2023-05-12T11:10:02;108472.19;;;32.85;30.31
19208;BME280;9737;59.466;18.036;2023-05-12T11:12:34;108865.75;;;33.78;30.56
19208;BME280;9737;59.466;18.036;2023-05-12T11:15:04;109003.72;;;34.06;30.21
19208;BME280;9737;59.466;18.036;2023-05-12T11:17:37;108989.81;;;34.07;30.34
19208;BME280;9737;59.466;18.036;2023-05-12T11:20:06;108756.28;;;33.53;30.01
19208;BME280;9737;59.466;18.036;2023-05-12T11:22:39;108674.13;;;33.38;30.09
19208;BME280;9737;59.466;18.036;2023-05-12T11:25:09;108249.97;;;32.39;30.17
19208;BME280;9737;59.466;18.036;2023-05-12T11:27:44;108644.84;;;33.34;30.08
19208;BME280;9737;59.466;18.036;2023-05-12T11:30:13;108580.94;;;33.21;29.73
19208;BME280;9737;59.466;18.036;2023-05-12T11:32:41;108865.53;;;33.84;29.52
19208;BME280;9737;59.466;18.036;2023-05-12T11:35:11;109206.75;;;34.67;29.24
19208;BME280;9737;59.466;18.036;2023-05-12T11:37:40;109233.28;;;34.73;29.44
19208;BME280;9737;59.466;18.036;2023-05-12T11:40:16;109127.38;;;34.47;29.38
19208;BME280;9737;59.466;18.036;2023-05-12T11:42:47;108996.63;;;34.21;29.39
19208;BME280;9737;59.466;18.036;2023-05-12T11:45:22;108825.94;;;33.83;28.83
19208;BME280;9737;59.466;18.036;2023-05-12T11:47:50;108984.66;;;34.20;29.40
19208;BME280;9737;59.466;18.036;2023-05-12T11:50:23;109116.97;;;34.53;28.99
19208;BME280;9737;59.466;18.036;2023-05-12T11:52:51;109124.25;;;34.55;28.91
19208;BME280;9737;59.466;18.036;2023-05-12T11:55:21;109260.25;;;34.90;28.86
19208;BME280;9737;59.466;18.036;2023-05-12T11:57:59;109353.59;;;35.09;28.72
19208;BME280;9737;59.466;18.036;2023-05-12T12:00:29;109049.25;;;34.41;28.90
19208;BME280;9737;59.466;18.036;2023-05-12T12:03:07;109147.78;;;34.65;28.47
19208;BME280;9737;59.466;18.036;2023-05-12T12:05:36;109346.09;;;35.12;28.41
19208;BME280;9737;59.466;18.036;2023-05-12T12:08:06;108966.88;;;34.26;28.31
19208;BME280;9737;59.466;18.036;2023-05-12T12:10:34;109096.34;;;34.60;28.42
19208;BME280;9737;59.466;18.036;2023-05-12T12:13:04;109377.97;;;35.22;28.21
19208;BME280;9737;59.466;18.036;2023-05-12T12:15:32;109579.16;;;35.71;28.17
19208;BME280;9737;59.466;18.036;2023-05-12T12:18:00;109208.75;;;34.86;28.07
19208;BME280;9737;59.466;18.036;2023-05-12T12:20:28;108920.00;;;34.23;27.88
19208;BME280;9737;59.466;18.036;2023-05-12T12:22:56;108758.47;;;33.88;27.51
19208;BME280;9737;59.466;18.036;2023-05-12T12:25:24;108652.59;;;33.65;27.40
19208;BME280;9737;59.466;18.036;2023-05-12T12:27:52;108620.69;;;33.58;27.44
19208;BME280;9737;59.466;18.036;2023-05-12T12:30:21;108512.31;;;33.33;27.65
19208;BME280;9737;59.466;18.036;2023-05-12T12:32:49;108460.38;;;33.20;27.10
19208;BME280;9737;59.466;18.036;2023-05-12T12:35:17;108382.94;;;33.05;27.09
19208;BME280;9737;59.466;18.036;2023-05-12T12:37:45;108385.53;;;33.08;27.08
19208;BME280;9737;59.466;18.036;2023-05-12T12:40:17;108089.16;;;32.37;27.46
19208;BME280;9737;59.466;18.036;2023-05-12T12:42:45;108297.13;;;32.90;27.09
19208;BME280;9737;59.466;18.036;2023-05-12T12:45:13;108382.63;;;33.11;27.09
19208;BME280;9737;59.466;18.036;2023-05-12T12:47:45;108399.94;;;33.14;26.73
19208;BME280;9737;59.466;18.036;2023-05-12T12:50:13;108369.78;;;33.10;26.98
19208;BME280;9737;59.466;18.036;2023-05-12T12:52:41;108079.69;;;32.42;26.95
19208;BME280;9737;59.466;18.036;2023-05-12T12:55:09;107946.94;;;32.14;26.63
19208;BME280;9737;59.466;18.036;2023-05-12T12:57:36;108053.19;;;32.40;26.75
19208;BME280;9737;59.466;18.036;2023-05-12T13:00:05;108420.56;;;33.26;26.55
19208;BME280;9737;59.466;18.036;2023-05-12T13:02:34;108535.22;;;33.53;26.61
19208;BME280;9737;59.466;18.036;2023-05-12T13:05:04;108229.31;;;32.85;26.54
19208;BME280;9737;59.466;18.036;2023-05-12T13:07:32;108237.59;;;32.85;26.00